createdAt,value
2022-08-04T00:00:15.137Z,18.90
2022-08-04T00:03:08.227Z,18.90
2022-08-04T00:05:41.890Z,18.90
2022-08-04T00:08:22.774Z,18.90
2022-08-04T00:10:53.665Z,19.00
2022-08-04T00:13:25.606Z,19.00
2022-08-04T00:15:59.383Z,18.90
2022-08-04T00:18:33.384Z,18.90
2022-08-04T00:21:05.710Z,18.80
2022-08-04T00:24:10.876Z,18.70
2022-08-04T00:26:23.578Z,18.60
2022-08-04T00:28:53.971Z,18.50
2022-08-04T00:31:33.361Z,18.40
2022-08-04T00:34:13.861Z,18.30
2022-08-04T00:36:43.858Z,18.20
2022-08-04T00:39:16.234Z,18.20
2022-08-04T00:42:16.907Z,18.10
2022-08-04T00:44:49.499Z,18.10
2022-08-04T00:47:47.481Z,18.00
2022-08-04T00:50:42.940Z,17.90
2022-08-04T00:53:22.701Z,17.90
2022-08-04T00:56:11.094Z,17.80
2022-08-04T00:59:02.762Z,17.80
2022-08-04T01:01:29.639Z,17.70
2022-08-04T01:04:04.354Z,17.70
2022-08-04T01:06:38.771Z,17.60
2022-08-04T01:09:08.908Z,17.60
2022-08-04T01:12:23.740Z,17.60
2022-08-04T01:15:06.572Z,17.60
2022-08-04T01:17:36.242Z,17.60
2022-08-04T01:20:11.507Z,17.50
2022-08-04T01:22:38.342Z,17.50
2022-08-04T01:25:38.474Z,17.40
2022-08-04T01:28:42.852Z,17.40
2022-08-04T01:31:21.795Z,17.40
2022-08-04T01:33:58.551Z,17.40
2022-08-04T01:36:34.695Z,17.40
2022-08-04T01:39:22.180Z,17.40
2022-08-04T01:41:57.699Z,17.30
2022-08-04T01:44:31.487Z,17.30
2022-08-04T01:47:01.750Z,17.30
2022-08-04T01:49:32.161Z,17.20
2022-08-04T01:52:10.298Z,17.20
2022-08-04T01:54:41.636Z,17.10
2022-08-04T01:57:38.713Z,17.10
2022-08-04T02:00:00.555Z,17.00
2022-08-04T02:02:27.721Z,16.90
2022-08-04T02:04:54.697Z,16.90
2022-08-04T02:07:46.458Z,16.80
2022-08-04T02:10:56.542Z,16.80
2022-08-04T02:13:35.111Z,16.80
2022-08-04T02:16:04.341Z,16.70
2022-08-04T02:18:46.501Z,16.70
2022-08-04T02:21:17.350Z,16.70
2022-08-04T02:23:49.583Z,16.60
2022-08-04T02:26:23.019Z,16.60
2022-08-04T02:29:17.062Z,16.60
2022-08-04T02:31:52.668Z,16.60
2022-08-04T02:34:28.921Z,16.60
2022-08-04T02:36:57.536Z,16.50
2022-08-04T02:39:29.454Z,16.50
2022-08-04T02:41:58.572Z,16.50
2022-08-04T02:44:28.313Z,16.50
2022-08-04T02:46:55.652Z,16.40
2022-08-04T02:49:23.986Z,16.40
2022-08-04T02:51:53.667Z,16.40
2022-08-04T02:54:32.476Z,16.40
2022-08-04T02:57:02.505Z,16.40
2022-08-04T03:00:03.213Z,16.30
2022-08-04T03:03:08.021Z,16.30
2022-08-04T03:05:51.901Z,16.30
2022-08-04T03:08:34.490Z,16.20
2022-08-04T03:11:35.822Z,16.20
2022-08-04T03:14:21.626Z,16.20
2022-08-04T03:17:15.278Z,16.20
2022-08-04T03:20:07.298Z,16.20
2022-08-04T03:23:13.445Z,16.20
2022-08-04T03:26:19.033Z,16.20
2022-08-04T03:29:36.238Z,16.20
2022-08-04T03:32:30.083Z,16.20
2022-08-04T03:35:02.936Z,16.10
2022-08-04T03:37:39.153Z,16.10
2022-08-04T03:40:40.086Z,16.10
2022-08-04T03:43:58.774Z,16.10
2022-08-04T03:46:45.090Z,16.10
2022-08-04T03:49:47.432Z,16.20
2022-08-04T03:53:09.137Z,16.20
2022-08-04T03:56:00.570Z,16.30
2022-08-04T03:59:04.848Z,16.40
2022-08-04T04:02:06.579Z,16.40
2022-08-04T04:04:55.170Z,16.40
2022-08-04T04:07:40.162Z,16.50
2022-08-04T04:10:44.523Z,16.60
2022-08-04T04:13:24.887Z,16.70
2022-08-04T04:16:24.626Z,16.80
2022-08-04T04:19:16.055Z,17.00
2022-08-04T04:21:54.925Z,17.10
2022-08-04T04:24:41.742Z,17.30
2022-08-04T04:27:47.086Z,17.50
2022-08-04T04:30:39.994Z,17.60
2022-08-04T04:33:29.150Z,17.80
2022-08-04T04:36:27.041Z,18.10
2022-08-04T04:39:11.949Z,18.30
2022-08-04T04:42:07.464Z,18.50
2022-08-04T04:45:10.108Z,18.60
2022-08-04T04:48:09.800Z,18.80
2022-08-04T04:51:10.762Z,19.00
2022-08-04T04:54:01.718Z,19.20
2022-08-04T04:56:38.550Z,19.40
2022-08-04T04:59:13.081Z,19.50
2022-08-04T05:02:07.449Z,19.70
2022-08-04T05:04:43.418Z,19.80
2022-08-04T05:07:28.981Z,20.00
2022-08-04T05:09:59.099Z,20.20
2022-08-04T05:14:34.916Z,20.30
2022-08-04T05:15:47.066Z,20.40
2022-08-04T05:18:21.347Z,20.50
2022-08-04T05:20:55.494Z,20.70
2022-08-04T05:23:27.746Z,20.80
2022-08-04T05:26:02.602Z,21.00
2022-08-04T05:28:45.357Z,21.20
2022-08-04T05:31:14.075Z,21.30
2022-08-04T05:33:53.850Z,21.50
2022-08-04T05:36:40.533Z,21.70
2022-08-04T05:39:15.716Z,21.80
2022-08-04T05:41:46.303Z,22.10
2022-08-04T05:44:23.824Z,22.30
2022-08-04T05:46:56.006Z,22.40
2022-08-04T05:49:28.298Z,22.60
2022-08-04T05:51:58.469Z,22.70
2022-08-04T05:54:26.359Z,22.70
2022-08-04T05:56:54.099Z,22.80
2022-08-04T05:59:25.709Z,23.00
2022-08-04T06:01:57.273Z,23.10
2022-08-04T06:04:33.043Z,23.40
2022-08-04T06:07:00.159Z,23.60
2022-08-04T06:09:27.595Z,23.60
2022-08-04T06:12:02.037Z,23.70
2022-08-04T06:14:42.409Z,24.00
2022-08-04T06:18:32.292Z,24.40
2022-08-04T06:20:20.133Z,24.70
2022-08-04T06:23:02.920Z,25.20
2022-08-04T06:25:33.155Z,25.60
2022-08-04T06:28:05.283Z,25.80
2022-08-04T06:30:32.933Z,26.10
2022-08-04T06:33:04.997Z,26.50
2022-08-04T06:35:33.895Z,26.70
2022-08-04T06:38:03.339Z,27.40
2022-08-04T06:40:36.600Z,27.70
2022-08-04T06:43:07.738Z,28.00
2022-08-04T06:45:37.557Z,28.40
2022-08-04T06:48:06.478Z,28.40
2022-08-04T06:51:25.419Z,28.80
2022-08-04T06:53:26.033Z,29.40
2022-08-04T06:55:54.233Z,29.90
2022-08-04T06:58:21.996Z,30.60
2022-08-04T07:00:50.790Z,30.80
2022-08-04T07:03:19.462Z,31.10
2022-08-04T07:05:51.671Z,31.40
2022-08-04T07:08:19.582Z,31.70
2022-08-04T07:10:46.979Z,32.00
2022-08-04T07:13:14.296Z,32.60
2022-08-04T07:15:46.054Z,33.40
2022-08-04T07:18:13.183Z,34.10
2022-08-04T07:20:44.940Z,34.70
2022-08-04T07:23:21.401Z,35.30
2022-08-04T07:25:59.671Z,35.70
2022-08-04T07:28:40.374Z,36.10
2022-08-04T07:31:11.114Z,36.60
2022-08-04T07:34:16.823Z,36.90
2022-08-04T07:36:50.926Z,37.10
2022-08-04T07:39:26.386Z,37.60
2022-08-04T07:41:56.802Z,37.40
2022-08-04T07:44:25.317Z,37.90
2022-08-04T07:46:52.691Z,38.50
2022-08-04T07:49:55.446Z,38.90
2022-08-04T07:52:10.511Z,39.40
2022-08-04T07:54:39.188Z,39.90
2022-08-04T07:57:06.213Z,40.00
2022-08-04T07:59:35.326Z,39.80
2022-08-04T08:02:03.134Z,39.60
2022-08-04T08:04:30.480Z,39.40
2022-08-04T08:06:58.895Z,39.30
2022-08-04T08:09:26.190Z,39.40
2022-08-04T08:12:35.114Z,39.40
2022-08-04T08:14:42.645Z,39.90
2022-08-04T08:17:09.643Z,40.40
2022-08-04T08:19:36.988Z,40.50
2022-08-04T08:22:05.206Z,40.20
2022-08-04T08:24:35.971Z,40.10
2022-08-04T08:27:04.721Z,40.50
2022-08-04T08:29:34.441Z,40.40
2022-08-04T08:32:07.816Z,40.20
2022-08-04T08:34:36.257Z,39.90
2022-08-04T08:37:31.652Z,40.00
2022-08-04T08:40:17.331Z,40.10
2022-08-04T08:44:05.153Z,40.40
2022-08-04T08:46:45.224Z,40.80
2022-08-04T08:49:11.908Z,40.80
2022-08-04T08:52:57.536Z,41.20
2022-08-04T08:55:38.111Z,42.00
2022-08-04T08:58:40.529Z,42.60
2022-08-04T09:01:34.422Z,43.00
2022-08-04T09:04:32.225Z,43.20
2022-08-04T09:07:17.251Z,43.00
2022-08-04T09:10:02.283Z,43.40
2022-08-04T09:12:41.692Z,42.40
2022-08-04T09:15:27.447Z,42.60
2022-08-04T09:18:15.834Z,43.10
2022-08-04T09:21:06.735Z,43.30
2022-08-04T09:23:39.754Z,43.00
2022-08-04T09:26:19.171Z,43.20
2022-08-04T09:29:03.302Z,42.50
2022-08-04T09:31:51.607Z,42.40
2022-08-04T09:34:30.122Z,41.60
2022-08-04T09:37:13.153Z,41.60
2022-08-04T09:40:06.419Z,41.70
2022-08-04T09:42:52.338Z,42.20
2022-08-04T09:45:42.352Z,42.60
2022-08-04T09:48:16.716Z,42.80
2022-08-04T09:50:50.501Z,43.70
2022-08-04T09:53:53.638Z,44.10
2022-08-04T09:56:35.576Z,44.90
2022-08-04T09:59:27.605Z,45.10
2022-08-04T10:02:05.846Z,44.60
2022-08-04T10:04:33.912Z,43.90
2022-08-04T10:07:24.651Z,43.70
2022-08-04T10:10:03.507Z,43.70
2022-08-04T10:12:57.520Z,43.80
2022-08-04T10:15:48.724Z,43.70
2022-08-04T10:18:38.382Z,43.70
2022-08-04T10:21:16.630Z,42.10
2022-08-04T10:24:00.521Z,40.70
2022-08-04T10:26:34.954Z,38.40
2022-08-04T10:29:12.669Z,37.70
2022-08-04T10:31:48.272Z,37.40
2022-08-04T10:34:22.077Z,36.70
2022-08-04T10:37:21.869Z,36.40
2022-08-04T10:40:38.036Z,36.20
2022-08-04T10:43:26.102Z,36.30
2022-08-04T10:46:10.325Z,35.90
2022-08-04T10:48:52.440Z,35.20
2022-08-04T10:52:11.869Z,34.60
2022-08-04T10:54:48.168Z,34.60
2022-08-04T10:57:23.845Z,34.30
2022-08-04T11:00:03.329Z,34.20
2022-08-04T11:03:01.875Z,33.90
2022-08-04T11:05:44.666Z,33.50
2022-08-04T11:08:21.883Z,33.20
2022-08-04T11:10:59.284Z,32.90
2022-08-04T11:13:47.380Z,32.60
2022-08-04T11:16:24.595Z,32.10
2022-08-04T11:19:44.746Z,32.10
2022-08-04T11:22:22.977Z,31.90
2022-08-04T11:25:03.429Z,31.80
2022-08-04T11:27:45.151Z,31.70
2022-08-04T11:30:15.334Z,31.60
2022-08-04T11:32:49.765Z,31.50
2022-08-04T11:35:45.764Z,31.40
2022-08-04T11:38:23.869Z,31.50
2022-08-04T11:41:02.669Z,31.60
2022-08-04T11:44:01.443Z,31.40
2022-08-04T11:46:39.497Z,31.20
2022-08-04T11:49:31.063Z,30.90
2022-08-04T11:52:01.175Z,31.00
2022-08-04T11:54:28.839Z,31.00
2022-08-04T11:56:56.181Z,31.00
2022-08-04T11:59:24.348Z,30.90
2022-08-04T12:02:21.325Z,30.90
2022-08-04T12:04:59.077Z,30.90
2022-08-04T12:07:41.500Z,30.80
2022-08-04T12:10:40.980Z,30.50
2022-08-04T12:13:22.635Z,30.50
2022-08-04T12:16:18.058Z,30.60
2022-08-04T12:18:56.572Z,30.60
2022-08-04T12:21:33.762Z,30.70
2022-08-04T12:24:17.557Z,30.70
2022-08-04T12:26:51.707Z,30.60
2022-08-04T12:29:21.729Z,30.30
2022-08-04T12:31:52.984Z,30.40
2022-08-04T12:34:40.983Z,30.50
2022-08-04T12:37:13.945Z,30.50
2022-08-04T12:40:28.692Z,30.50
2022-08-04T12:42:59.365Z,30.50
2022-08-04T12:45:28.733Z,30.60
2022-08-04T12:47:58.984Z,30.50
2022-08-04T12:50:26.568Z,30.60
2022-08-04T12:53:04.546Z,30.60
2022-08-04T12:55:35.208Z,30.60
2022-08-04T12:58:11.655Z,30.50
2022-08-04T13:00:41.860Z,30.60
2022-08-04T13:03:12.505Z,30.60
2022-08-04T13:05:41.077Z,30.40
2022-08-04T13:08:10.161Z,30.50
2022-08-04T13:10:40.772Z,30.60
2022-08-04T13:13:16.048Z,30.60
2022-08-04T13:15:46.706Z,30.70
2022-08-04T13:18:15.603Z,30.80
2022-08-04T13:20:44.401Z,30.70
2022-08-04T13:23:21.531Z,30.70
2022-08-04T13:26:42.975Z,30.60
2022-08-04T13:28:45.106Z,30.60
2022-08-04T13:31:16.703Z,30.60
2022-08-04T13:33:46.268Z,30.60
2022-08-04T13:36:14.410Z,30.60
2022-08-04T13:38:49.680Z,30.50
2022-08-04T13:41:17.973Z,30.50
2022-08-04T13:44:17.605Z,30.40
2022-08-04T13:46:50.407Z,30.40
2022-08-04T13:49:38.038Z,30.40
2022-08-04T13:52:11.350Z,30.40
2022-08-04T13:54:47.058Z,30.50
2022-08-04T13:57:19.700Z,30.60
2022-08-04T13:59:52.016Z,30.50
2022-08-04T14:02:40.134Z,30.60
2022-08-04T14:05:27.002Z,31.30
2022-08-04T14:08:20.019Z,33.60
2022-08-04T14:10:55.340Z,35.50
2022-08-04T14:13:41.172Z,37.40
2022-08-04T14:16:20.439Z,37.90
2022-08-04T14:18:57.080Z,38.80
2022-08-04T14:21:24.930Z,38.80
2022-08-04T14:23:57.155Z,38.30
2022-08-04T14:26:32.728Z,38.20
2022-08-04T14:29:28.229Z,38.70
2022-08-04T14:32:13.907Z,38.60
2022-08-04T14:34:45.238Z,38.80
2022-08-04T14:37:19.802Z,39.30
2022-08-04T14:40:08.183Z,39.50
2022-08-04T14:42:42.573Z,39.50
2022-08-04T14:45:10.894Z,39.50
2022-08-04T14:47:51.983Z,39.60
2022-08-04T14:50:20.465Z,39.50
2022-08-04T14:52:47.447Z,39.10
2022-08-04T14:55:24.855Z,38.70
2022-08-04T14:58:32.998Z,38.90
2022-08-04T15:00:39.647Z,39.00
2022-08-04T15:03:11.197Z,38.30
2022-08-04T15:06:02.650Z,37.90
2022-08-04T15:08:31.034Z,37.30
2022-08-04T15:11:02.431Z,36.50
2022-08-04T15:13:32.334Z,35.80
2022-08-04T15:16:07.158Z,34.70
2022-08-04T15:18:39.152Z,34.00
2022-08-04T15:21:07.373Z,33.30
2022-08-04T15:23:39.324Z,32.60
2022-08-04T15:26:11.630Z,32.10
2022-08-04T15:28:42.059Z,31.50
2022-08-04T15:32:06.131Z,31.10
2022-08-04T15:33:58.042Z,30.70
2022-08-04T15:36:34.714Z,30.40
2022-08-04T15:39:11.048Z,30.30
2022-08-04T15:42:01.869Z,30.20
2022-08-04T15:45:03.209Z,30.10
2022-08-04T15:47:30.715Z,30.00
2022-08-04T15:50:12.574Z,30.00
2022-08-04T15:53:12.429Z,29.90
2022-08-04T15:55:44.125Z,29.90
2022-08-04T15:58:13.373Z,29.80
2022-08-04T16:00:49.269Z,29.70
2022-08-04T16:03:57.893Z,29.60
2022-08-04T16:06:22.403Z,29.60
2022-08-04T16:08:57.342Z,29.50
2022-08-04T16:11:31.203Z,29.50
2022-08-04T16:13:59.340Z,29.30
2022-08-04T16:16:31.693Z,29.20
2022-08-04T16:19:17.226Z,29.20
2022-08-04T16:21:49.067Z,29.10
2022-08-04T16:24:19.694Z,29.00
2022-08-04T16:26:54.821Z,29.00
2022-08-04T16:29:23.199Z,28.90
2022-08-04T16:32:06.149Z,29.00
2022-08-04T16:34:50.146Z,28.90
2022-08-04T16:37:22.139Z,28.80
2022-08-04T16:39:51.108Z,28.70
2022-08-04T16:42:28.078Z,28.70
2022-08-04T16:45:13.355Z,28.50
2022-08-04T16:47:49.191Z,28.40
2022-08-04T16:50:22.717Z,28.30
2022-08-04T16:52:51.550Z,28.20
2022-08-04T16:55:27.013Z,28.00
2022-08-04T16:57:56.999Z,27.90
2022-08-04T17:00:33.158Z,27.80
2022-08-04T17:03:09.061Z,27.70
2022-08-04T17:05:39.497Z,27.60
2022-08-04T17:10:56.977Z,27.40
2022-08-04T17:14:03.273Z,27.30
2022-08-04T17:16:18.837Z,27.20
2022-08-04T17:18:48.798Z,27.20
2022-08-04T17:21:22.376Z,27.10
2022-08-04T17:24:15.707Z,27.00
2022-08-04T17:26:45.471Z,26.90
2022-08-04T17:29:22.303Z,26.80
2022-08-04T17:31:49.254Z,26.70
2022-08-04T17:34:21.493Z,26.60
2022-08-04T17:36:49.116Z,26.40
2022-08-04T17:39:20.864Z,26.40
2022-08-04T17:41:49.572Z,26.20
2022-08-04T17:44:17.610Z,26.10
2022-08-04T17:46:48.222Z,26.00
2022-08-04T17:49:18.578Z,25.90
2022-08-04T17:52:04.617Z,25.90
2022-08-04T17:54:44.502Z,25.80
2022-08-04T17:57:21.835Z,25.80
2022-08-04T17:59:59.204Z,25.70
2022-08-04T18:02:53.912Z,25.60
2022-08-04T18:05:50.265Z,25.50
2022-08-04T18:08:45.534Z,25.50
2022-08-04T18:11:03.296Z,25.40
2022-08-04T18:13:42.325Z,25.40
2022-08-04T18:16:22.606Z,25.20
2022-08-04T18:19:13.687Z,25.10
2022-08-04T18:21:46.606Z,25.10
2022-08-04T18:24:35.586Z,25.00
2022-08-04T18:27:17.883Z,24.90
2022-08-04T18:30:14.519Z,24.80
2022-08-04T18:32:33.711Z,24.70
2022-08-04T18:35:05.406Z,24.60
2022-08-04T18:38:06.591Z,24.50
2022-08-04T18:40:29.899Z,24.40
2022-08-04T18:43:03.488Z,24.30
2022-08-04T18:45:34.563Z,24.30
2022-08-04T18:48:04.020Z,24.20
2022-08-04T18:51:10.640Z,24.10
2022-08-04T18:53:35.379Z,24.00
2022-08-04T18:56:06.391Z,24.00
2022-08-04T18:58:51.867Z,23.90
2022-08-04T19:01:29.923Z,23.90
2022-08-04T19:04:32.331Z,23.90
2022-08-04T19:07:04.363Z,23.80
2022-08-04T19:09:52.230Z,23.80
2022-08-04T19:12:27.244Z,23.80
2022-08-04T19:15:10.271Z,23.70
2022-08-04T19:17:53.506Z,23.70
2022-08-04T19:20:26.511Z,23.70
2022-08-04T19:24:10.582Z,23.70
2022-08-04T19:25:59.630Z,23.60
2022-08-04T19:28:34.173Z,23.60
2022-08-04T19:31:03.025Z,23.70
2022-08-04T19:33:55.342Z,23.70
2022-08-04T19:36:17.507Z,23.60
2022-08-04T19:38:45.125Z,23.70
2022-08-04T19:41:14.501Z,23.60
2022-08-04T19:46:29.637Z,23.50
2022-08-04T19:48:58.881Z,23.40
2022-08-04T19:51:30.295Z,23.30
2022-08-04T19:54:03.853Z,23.30
2022-08-04T19:56:40.462Z,23.20
2022-08-04T19:59:09.778Z,23.20
2022-08-04T20:01:44.202Z,23.20
2022-08-04T20:04:12.767Z,23.20
2022-08-04T20:06:39.822Z,23.10
2022-08-04T20:09:26.150Z,23.00
2022-08-04T20:11:57.156Z,22.90
2022-08-04T20:14:32.376Z,22.90
2022-08-04T20:17:02.169Z,22.80
2022-08-04T20:19:30.469Z,22.80
2022-08-04T20:21:58.114Z,22.70
2022-08-04T20:24:40.483Z,22.70
2022-08-04T20:27:14.790Z,22.60
2022-08-04T20:29:46.111Z,22.60
2022-08-04T20:32:22.229Z,22.50
2022-08-04T20:34:51.997Z,22.40
2022-08-04T20:37:23.941Z,22.40
2022-08-04T20:39:59.522Z,22.30
2022-08-04T20:42:34.081Z,22.30
2022-08-04T20:45:02.545Z,22.10
2022-08-04T20:47:35.152Z,22.10
2022-08-04T20:50:08.746Z,22.00
2022-08-04T20:52:37.652Z,21.90
2022-08-04T20:55:06.584Z,21.80
2022-08-04T20:57:48.700Z,21.70
2022-08-04T21:00:26.586Z,21.70
2022-08-04T21:02:57.994Z,21.70
2022-08-04T21:05:26.590Z,21.70
2022-08-04T21:07:57.070Z,21.70
2022-08-04T21:10:25.640Z,21.60
2022-08-04T21:12:54.432Z,21.60
2022-08-04T21:15:25.624Z,21.60
2022-08-04T21:20:43.145Z,21.50
2022-08-04T21:23:28.407Z,21.40
2022-08-04T21:26:04.499Z,21.30
2022-08-04T21:28:32.424Z,21.20
2022-08-04T21:31:02.498Z,21.20
2022-08-04T21:33:50.855Z,21.20
2022-08-04T21:36:19.683Z,21.10
2022-08-04T21:38:51.431Z,21.10
2022-08-04T21:41:20.411Z,21.00
2022-08-04T21:43:52.624Z,20.90
2022-08-04T21:46:20.243Z,20.90
2022-08-04T21:48:48.614Z,20.90
2022-08-04T21:51:57.895Z,20.80
2022-08-04T21:54:15.111Z,20.70
2022-08-04T21:56:50.675Z,20.70
2022-08-04T21:59:23.596Z,20.70
2022-08-04T22:06:10.482Z,20.50
2022-08-04T22:08:49.102Z,20.50
2022-08-04T22:11:48.111Z,20.50
2022-08-04T22:14:27.344Z,20.50
2022-08-04T22:16:58.569Z,20.40
2022-08-04T22:19:49.792Z,20.40
2022-08-04T22:22:26.001Z,20.40
2022-08-04T22:25:13.424Z,20.30
2022-08-04T22:28:03.048Z,20.30
2022-08-04T22:30:37.448Z,20.30
2022-08-04T22:33:08.491Z,20.20
2022-08-04T22:35:48.871Z,20.30
2022-08-04T22:38:26.865Z,20.30
2022-08-04T22:41:05.677Z,20.30
2022-08-04T22:43:35.544Z,20.30
2022-08-04T22:46:19.161Z,20.30
2022-08-04T22:48:47.838Z,20.30
2022-08-04T22:51:19.825Z,20.20
2022-08-04T22:53:51.310Z,20.20
2022-08-04T22:56:37.533Z,20.20
2022-08-04T22:59:11.551Z,20.20
2022-08-04T23:01:59.855Z,20.20
2022-08-04T23:04:31.497Z,20.30
2022-08-04T23:07:00.915Z,20.30
2022-08-04T23:09:50.352Z,20.20
2022-08-04T23:12:25.477Z,20.30
2022-08-04T23:15:00.586Z,20.30
2022-08-04T23:17:28.770Z,20.30
2022-08-04T23:20:00.556Z,20.40
2022-08-04T23:22:36.977Z,20.40
2022-08-04T23:25:16.940Z,20.40
2022-08-04T23:27:51.490Z,20.40
2022-08-04T23:30:29.446Z,20.30
2022-08-04T23:33:01.078Z,20.30
2022-08-04T23:35:28.516Z,20.20
2022-08-04T23:38:00.050Z,20.10
2022-08-04T23:40:50.354Z,20.10
2022-08-04T23:43:19.000Z,20.00
2022-08-04T23:46:05.011Z,19.90
2022-08-04T23:48:39.559Z,19.90
2022-08-04T23:51:14.767Z,19.80
2022-08-04T23:54:02.319Z,19.80
2022-08-04T23:56:33.127Z,19.80
2022-08-04T23:59:03.672Z,19.70
